Bei Facebook empfehlenBei Twitter postenGoogle plusPinterest

Das Wetter im Erzgebirge am 15.06.2015

Wetter und Klima am 15.06.2015 Holzhau im Erzgebirge (630m ü.NN)
Letzte gemessene Temperatur und Uhrzeit der Messung23:45:00 Uhr7.80 °C
Temperatur (Maximum / Höchstwert) und Uhrzeit der Messung17:45:00 Uhr16.20 °C
Temperatur (Minimum / Tiefstwert) und Uhrzeit der Messung23:45:007.80 °C
Errechneter Absolutwert der Temperaturschwankungen zwischen Tmin und Tmax des Tages8.40 K
Errechnete Tagesmitteltemperatur13.34271 °C
Gesamt - Niederschlag des Tages (in flüssiger Form)0.00 Liter / m²
Luftdruck (Maximum / Höchstwert) und Zeitpunkt der Messung23:45:00 Uhr1017.60 hPa
Luftdruck (Minimum / Tiefstwert) und Zeitpunkt der Messung02:15:00 Uhr1010.00 hPa
Errechneter Absolutwert der Luftdruckschwankungen des Tages7.60 hPa
Höchste gemessene Windgeschwindigkeit und Uhrzeit der Messung10:30:00 Uhr6.12 km/h
Errechnete Windhäufigkeit in Relation zu den Messwerten des Tages1.04167 %
Niedrigste Windkühle (Windchill) und Zeitpunkt der Messung23:45:00 Uhr7.80 °C
Taupunkt (Maximum / Höchstwert) und Uhrzeit der Messung14:15:00 Uhr11.40 °C
Taupunkt (Minimum / Tiefstwert) und Uhrzeit der Messung23:45:005.40 °C
Anzahl der automatisch eingelesenen Messwerte 96

Detaillierte Wetter- und Klima- Messwerte für den 15.06.2015 in Holzhau im Erzgebirge (630m ü.NN)
ZeitTemperaturLuftdruckRel. LuftfeuchteWindWindrichtungWindchillTaupunktNiederschlag l/m²
23:45:007.80 °C1017.60 hPa85.00 %5.40 °C 
23:30:008.50 °C1017.60 hPa84.00 %6.00 °C 
23:15:009.30 °C1017.50 hPa83.00 %6.60 °C 
23:00:009.90 °C1017.40 hPa83.00 %7.20 °C 
22:45:0010.20 °C1017.20 hPa82.00 %7.30 °C 
22:30:0010.40 °C1017.30 hPa81.00 %7.30 °C 
22:15:0010.80 °C1017.10 hPa81.00 %7.70 °C 
22:00:0010.90 °C1016.90 hPa81.00 %7.80 °C 
21:45:0011.10 °C1016.80 hPa80.00 %7.80 °C 
21:30:0011.20 °C1016.70 hPa79.00 %7.70 °C 
21:15:0011.40 °C1016.40 hPa78.00 %7.70 °C 
21:00:0011.60 °C1016.20 hPa76.00 %7.50 °C 
20:45:0012.20 °C1016.10 hPa73.00 %7.50 °C 
20:30:0012.80 °C1015.90 hPa71.00 %7.70 °C 
20:15:0013.70 °C1015.90 hPa70.00 %8.30 °C 
20:00:0014.60 °C1015.80 hPa68.00 %8.80 °C 
19:45:0015.40 °C1015.60 hPa67.00 %9.30 °C 
19:30:0015.50 °C1015.40 hPa68.00 %9.60 °C 
19:15:0014.70 °C1015.60 hPa70.00 %9.30 °C 
19:00:0014.40 °C1015.70 hPa70.00 %9.00 °C 
18:45:0014.60 °C1015.60 hPa70.00 %9.20 °C 
18:30:0014.70 °C1015.40 hPa69.00 %9.10 °C 
18:15:0014.80 °C1015.60 hPa68.00 %9.00 °C 
18:00:0015.40 °C1015.30 hPa66.00 %9.10 °C 
17:45:0016.20 °C1015.30 hPa66.00 %9.80 °C 
17:30:0016.00 °C1015.20 hPa69.00 %10.30 °C 
17:15:0015.40 °C1015.50 hPa70.00 %10.00 °C 
17:00:0015.10 °C1015.60 hPa70.00 %9.70 °C 
16:45:0015.80 °C1015.40 hPa70.00 %10.30 °C 
16:30:0015.80 °C1015.40 hPa70.00 %10.30 °C 
16:15:0015.40 °C1015.50 hPa72.00 %10.40 °C 
16:00:0014.40 °C1015.40 hPa73.00 %9.60 °C 
15:45:0014.50 °C1015.70 hPa74.00 %9.90 °C 
15:30:0014.90 °C1015.70 hPa73.00 %10.10 °C 
15:15:0014.70 °C1015.60 hPa75.00 %10.30 °C 
15:00:0015.40 °C1015.70 hPa73.00 %10.60 °C 
14:45:0015.30 °C1015.60 hPa74.00 %10.70 °C 
14:30:0015.90 °C1015.50 hPa73.00 %11.10 °C 
14:15:0015.80 °C1015.30 hPa75.00 %11.40 °C 
14:00:0014.10 °C1015.50 hPa79.00 %10.50 °C 
13:45:0013.60 °C1015.60 hPa80.00 %10.20 °C 
13:30:0013.30 °C1015.40 hPa80.00 %9.90 °C 
13:15:0013.50 °C1015.40 hPa78.00 %9.70 °C 
13:00:0014.30 °C1015.20 hPa75.00 %9.90 °C 
12:45:0015.30 °C1015.20 hPa73.00 %10.50 °C 
12:30:0015.60 °C1014.90 hPa74.00 %11.00 °C 
12:15:0015.40 °C1014.60 hPa75.00 %11.00 °C 
12:00:0014.80 °C1014.40 hPa77.00 %10.80 °C 
11:45:0013.90 °C1014.40 hPa80.00 %10.50 °C 
11:30:0014.20 °C1014.20 hPa79.00 %10.60 °C 
11:15:0014.60 °C1014.00 hPa79.00 %11.00 °C 
11:00:0014.50 °C1013.70 hPa79.00 %10.90 °C 
10:45:0014.60 °C1013.40 hPa80.00 %11.20 °C 
10:30:0013.90 °C1013.40 hPa84.00 %6.12 km/hSW13.90 °C11.20 °C 
10:15:0012.80 °C1013.20 hPa83.00 %10.00 °C 
10:00:0013.10 °C1013.30 hPa81.00 %9.90 °C 
09:45:0013.60 °C1013.00 hPa80.00 %10.20 °C 
09:30:0014.40 °C1012.90 hPa81.00 %11.20 °C 
09:15:0013.60 °C1012.70 hPa82.00 %10.60 °C 
09:00:0013.10 °C1012.80 hPa83.00 %10.30 °C 
08:45:0012.80 °C1012.40 hPa84.00 %10.20 °C 
08:30:0012.90 °C1012.40 hPa83.00 %10.10 °C 
08:15:0013.10 °C1012.20 hPa83.00 %10.30 °C 
08:00:0013.10 °C1012.00 hPa83.00 %10.30 °C 
07:45:0013.30 °C1011.90 hPa83.00 %10.50 °C 
07:30:0013.10 °C1011.70 hPa85.00 %10.60 °C 
07:15:0012.80 °C1011.50 hPa85.00 %10.30 °C 
07:00:0012.40 °C1011.40 hPa86.00 %10.10 °C 
06:45:0012.20 °C1011.40 hPa87.00 %10.10 °C 
06:30:0012.20 °C1011.20 hPa87.00 %10.10 °C 
06:15:0011.90 °C1011.10 hPa87.00 %9.80 °C 
06:00:0011.90 °C1010.80 hPa87.00 %9.80 °C 
05:45:0011.90 °C1010.90 hPa87.00 %9.80 °C 
05:30:0011.80 °C1011.20 hPa87.00 %9.70 °C 
05:15:0011.80 °C1011.20 hPa87.00 %9.70 °C 
05:00:0011.90 °C1010.90 hPa86.00 %9.60 °C 
04:45:0012.50 °C1010.80 hPa87.00 %10.40 °C 
04:30:0012.80 °C1010.80 hPa88.00 %10.90 °C 
04:15:0012.90 °C1010.60 hPa88.00 %11.00 °C 
04:00:0012.90 °C1010.50 hPa88.00 %11.00 °C 
03:45:0012.90 °C1010.20 hPa88.00 %11.00 °C 
03:30:0012.90 °C1010.10 hPa87.00 %10.80 °C 
03:15:0012.90 °C1010.10 hPa87.00 %10.80 °C 
03:00:0012.90 °C1010.20 hPa87.00 %10.80 °C 
02:45:0012.80 °C1010.20 hPa87.00 %10.70 °C 
02:30:0012.60 °C1010.20 hPa86.00 %10.30 °C 
02:15:0012.90 °C1010.00 hPa86.00 %10.60 °C 
02:00:0012.90 °C1010.00 hPa86.00 %10.60 °C 
01:45:0012.90 °C1010.30 hPa86.00 %10.60 °C 
01:30:0012.90 °C1010.20 hPa85.00 %10.40 °C 
01:15:0013.10 °C1010.00 hPa85.00 %10.60 °C 
01:00:0013.10 °C1010.00 hPa85.00 %10.60 °C 
00:45:0012.90 °C1010.20 hPa85.00 %10.40 °C 
00:30:0013.00 °C1010.10 hPa83.00 %10.20 °C 
00:15:0013.40 °C1010.10 hPa82.00 %10.40 °C 
00:00:0013.90 °C1010.10 hPa80.00 %10.50 °C 

Permanenter Link zu dieser Seite: Wetter im Erzgebirge am 15.06.2015
Performance-Info: Die Erstellung der Seite / Statistik(en) / Tabelle(n) erforderte 5 Datenbankserver-Abfrage(n) und dauerte 95 Millisekunden. (Dieser Messwert ist von der Gesamt-Auslastung des Servers abhängig.)
Erzgebirge - Wetter | Erzgebirge - Wetter (Mobilgeräte) | Komplette Klimadatenbank